createdAt,value
2019-05-14T00:21:34.363Z,64.50
2019-05-14T00:51:41.157Z,64.00
2019-05-14T01:21:43.382Z,63.50
2019-05-14T01:51:45.993Z,63.80
2019-05-14T02:21:48.602Z,63.20
2019-05-14T02:51:51.237Z,63.90
2019-05-14T03:21:53.825Z,62.70
2019-05-14T03:52:00.061Z,63.20
2019-05-14T04:22:01.057Z,64.70
2019-05-14T04:52:03.661Z,65.90
2019-05-14T05:22:07.997Z,66.60
2019-05-14T05:52:10.516Z,66.00
2019-05-14T06:22:13.200Z,65.80
2019-05-14T06:52:15.822Z,66.10
2019-05-14T07:22:19.615Z,65.90
2019-05-14T07:52:22.265Z,68.80
2019-05-14T08:22:24.917Z,67.60
2019-05-14T08:52:28.832Z,64.40
2019-05-14T09:22:31.523Z,59.50
2019-05-14T09:52:34.126Z,63.70
2019-05-14T10:22:36.737Z,67.90
2019-05-14T10:52:39.632Z,69.40
2019-05-14T11:22:42.511Z,73.10
2019-05-14T11:52:45.105Z,72.10
2019-05-14T12:22:48.802Z,79.50
2019-05-14T12:52:52.115Z,81.80
2019-05-14T13:22:54.689Z,82.80
2019-05-14T13:53:02.678Z,70.50
2019-05-14T14:23:17.604Z,66.20
2019-05-14T14:53:09.206Z,64.00
2019-05-14T15:23:11.241Z,64.50
2019-05-14T15:53:13.923Z,64.00
2019-05-14T16:23:18.633Z,60.00
2019-05-14T16:53:20.934Z,63.20
2019-05-14T17:23:23.593Z,63.60
2019-05-14T17:53:26.245Z,63.40
2019-05-14T18:23:29.081Z,63.10
2019-05-14T18:53:31.845Z,61.80
2019-05-14T19:23:34.492Z,63.50
2019-05-14T19:53:39.197Z,63.70
2019-05-14T20:23:42.373Z,63.70
2019-05-14T20:53:45.343Z,64.60
2019-05-14T21:23:48.970Z,64.30
2019-05-14T21:53:51.822Z,65.50
2019-05-14T22:23:54.427Z,68.40
2019-05-14T22:53:58.852Z,68.90
2019-05-14T23:24:01.305Z,70.80
2019-05-14T23:54:03.942Z,71.80
